sensor_id;sensor_type;location;lat;lon;timestamp;P1;durP1;ratioP1;P2;durP2;ratioP2
55710;SDS011;41612;51.994;5.880;2022-12-29T00:00:05;4.10;;;3.15;;
55710;SDS011;41612;51.994;5.880;2022-12-29T00:02:39;5.22;;;3.65;;
55710;SDS011;41612;51.994;5.880;2022-12-29T00:05:05;5.80;;;3.33;;
55710;SDS011;41612;51.994;5.880;2022-12-29T00:07:32;7.28;;;4.00;;
55710;SDS011;41612;51.994;5.880;2022-12-29T00:09:57;3.97;;;2.95;;
55710;SDS011;41612;51.994;5.880;2022-12-29T00:12:23;5.38;;;3.58;;
55710;SDS011;41612;51.994;5.880;2022-12-29T00:14:49;4.60;;;3.30;;
55710;SDS011;41612;51.994;5.880;2022-12-29T00:17:33;6.30;;;3.22;;
55710;SDS011;41612;51.994;5.880;2022-12-29T00:19:58;6.43;;;3.33;;
55710;SDS011;41612;51.994;5.880;2022-12-29T00:22:43;6.10;;;3.50;;
55710;SDS011;41612;51.994;5.880;2022-12-29T00:25:27;5.25;;;3.40;;
55710;SDS011;41612;51.994;5.880;2022-12-29T00:28:11;5.55;;;3.78;;
55710;SDS011;41612;51.994;5.880;2022-12-29T00:30:59;5.57;;;3.67;;
55710;SDS011;41612;51.994;5.880;2022-12-29T00:33:43;4.75;;;3.55;;
55710;SDS011;41612;51.994;5.880;2022-12-29T00:36:31;5.40;;;3.58;;
55710;SDS011;41612;51.994;5.880;2022-12-29T00:39:02;6.53;;;3.60;;
55710;SDS011;41612;51.994;5.880;2022-12-29T00:42:05;5.70;;;3.45;;
55710;SDS011;41612;51.994;5.880;2022-12-29T00:44:50;6.35;;;3.20;;
55710;SDS011;41612;51.994;5.880;2022-12-29T00:47:16;4.15;;;3.10;;
55710;SDS011;41612;51.994;5.880;2022-12-29T00:49:41;7.05;;;3.58;;
55710;SDS011;41612;51.994;5.880;2022-12-29T00:52:08;4.68;;;3.42;;
55710;SDS011;41612;51.994;5.880;2022-12-29T00:54:36;4.25;;;3.00;;
55710;SDS011;41612;51.994;5.880;2022-12-29T00:57:04;4.28;;;2.63;;
55710;SDS011;41612;51.994;5.880;2022-12-29T00:59:32;4.93;;;3.10;;
55710;SDS011;41612;51.994;5.880;2022-12-29T01:01:59;4.07;;;2.88;;
55710;SDS011;41612;51.994;5.880;2022-12-29T01:04:27;4.55;;;2.53;;
55710;SDS011;41612;51.994;5.880;2022-12-29T01:06:53;4.50;;;3.05;;
55710;SDS011;41612;51.994;5.880;2022-12-29T01:09:19;5.32;;;2.80;;
55710;SDS011;41612;51.994;5.880;2022-12-29T01:12:04;7.18;;;2.72;;
55710;SDS011;41612;51.994;5.880;2022-12-29T01:14:30;5.03;;;2.58;;
55710;SDS011;41612;51.994;5.880;2022-12-29T01:16:56;5.68;;;2.30;;
55710;SDS011;41612;51.994;5.880;2022-12-29T01:19:22;3.90;;;2.17;;
55710;SDS011;41612;51.994;5.880;2022-12-29T01:21:48;3.35;;;1.63;;
55710;SDS011;41612;51.994;5.880;2022-12-29T01:24:15;4.50;;;1.77;;
55710;SDS011;41612;51.994;5.880;2022-12-29T01:26:42;6.22;;;1.30;;
55710;SDS011;41612;51.994;5.880;2022-12-29T01:29:07;3.33;;;1.27;;
55710;SDS011;41612;51.994;5.880;2022-12-29T01:31:33;4.47;;;1.45;;
55710;SDS011;41612;51.994;5.880;2022-12-29T01:33:59;2.70;;;1.50;;
55710;SDS011;41612;51.994;5.880;2022-12-29T01:36:25;2.33;;;1.30;;
55710;SDS011;41612;51.994;5.880;2022-12-29T01:38:51;2.38;;;1.50;;
55710;SDS011;41612;51.994;5.880;2022-12-29T01:41:19;2.95;;;1.50;;
55710;SDS011;41612;51.994;5.880;2022-12-29T01:43:46;2.15;;;1.10;;
55710;SDS011;41612;51.994;5.880;2022-12-29T01:51:35;3.60;;;1.42;;
55710;SDS011;41612;51.994;5.880;2022-12-29T01:54:06;4.82;;;1.58;;
55710;SDS011;41612;51.994;5.880;2022-12-29T01:56:36;3.28;;;1.55;;
55710;SDS011;41612;51.994;5.880;2022-12-29T01:59:05;3.80;;;1.45;;
55710;SDS011;41612;51.994;5.880;2022-12-29T02:01:37;2.67;;;1.60;;
55710;SDS011;41612;51.994;5.880;2022-12-29T02:04:03;3.28;;;1.83;;
55710;SDS011;41612;51.994;5.880;2022-12-29T02:06:33;3.03;;;1.80;;
55710;SDS011;41612;51.994;5.880;2022-12-29T02:09:03;4.60;;;1.75;;
55710;SDS011;41612;51.994;5.880;2022-12-29T02:11:29;2.85;;;1.90;;
55710;SDS011;41612;51.994;5.880;2022-12-29T02:13:56;3.47;;;2.15;;
55710;SDS011;41612;51.994;5.880;2022-12-29T02:16:30;4.32;;;2.40;;
55710;SDS011;41612;51.994;5.880;2022-12-29T02:28:04;3.85;;;1.70;;
55710;SDS011;41612;51.994;5.880;2022-12-29T02:33:58;2.97;;;1.60;;
55710;SDS011;41612;51.994;5.880;2022-12-29T02:45:05;6.57;;;2.53;;
55710;SDS011;41612;51.994;5.880;2022-12-29T02:47:46;3.90;;;1.90;;
55710;SDS011;41612;51.994;5.880;2022-12-29T02:53:25;3.80;;;1.42;;
55710;SDS011;41612;51.994;5.880;2022-12-29T02:58:37;1.90;;;1.30;;
55710;SDS011;41612;51.994;5.880;2022-12-29T03:01:07;4.15;;;1.33;;
55710;SDS011;41612;51.994;5.880;2022-12-29T03:03:51;2.72;;;1.42;;
55710;SDS011;41612;51.994;5.880;2022-12-29T03:15:20;2.75;;;1.02;;
55710;SDS011;41612;51.994;5.880;2022-12-29T03:18:12;4.47;;;1.50;;
55710;SDS011;41612;51.994;5.880;2022-12-29T03:20:49;3.65;;;1.08;;
55710;SDS011;41612;51.994;5.880;2022-12-29T03:23:21;4.72;;;1.50;;
55710;SDS011;41612;51.994;5.880;2022-12-29T03:25:51;3.95;;;1.02;;
55710;SDS011;41612;51.994;5.880;2022-12-29T03:28:24;4.32;;;1.30;;
55710;SDS011;41612;51.994;5.880;2022-12-29T03:30:54;3.97;;;1.10;;
55710;SDS011;41612;51.994;5.880;2022-12-29T03:33:24;4.45;;;1.67;;
55710;SDS011;41612;51.994;5.880;2022-12-29T03:35:54;2.28;;;1.17;;
55710;SDS011;41612;51.994;5.880;2022-12-29T03:41:07;6.95;;;1.65;;
55710;SDS011;41612;51.994;5.880;2022-12-29T03:43:36;2.65;;;1.00;;
55710;SDS011;41612;51.994;5.880;2022-12-29T03:46:02;2.85;;;1.17;;
55710;SDS011;41612;51.994;5.880;2022-12-29T03:48:28;3.42;;;1.30;;
55710;SDS011;41612;51.994;5.880;2022-12-29T03:50:55;2.30;;;1.00;;
55710;SDS011;41612;51.994;5.880;2022-12-29T03:53:21;4.15;;;1.48;;
55710;SDS011;41612;51.994;5.880;2022-12-29T03:55:47;2.95;;;1.20;;
55710;SDS011;41612;51.994;5.880;2022-12-29T03:58:14;4.30;;;1.20;;
55710;SDS011;41612;51.994;5.880;2022-12-29T04:00:53;6.20;;;1.00;;
55710;SDS011;41612;51.994;5.880;2022-12-29T04:03:19;4.95;;;1.15;;
55710;SDS011;41612;51.994;5.880;2022-12-29T04:05:45;6.45;;;1.30;;
55710;SDS011;41612;51.994;5.880;2022-12-29T04:08:11;7.57;;;1.55;;
55710;SDS011;41612;51.994;5.880;2022-12-29T04:10:39;3.55;;;1.00;;
55710;SDS011;41612;51.994;5.880;2022-12-29T04:13:06;2.78;;;0.95;;
55710;SDS011;41612;51.994;5.880;2022-12-29T04:15:31;2.08;;;1.00;;
55710;SDS011;41612;51.994;5.880;2022-12-29T04:17:57;5.47;;;1.13;;
55710;SDS011;41612;51.994;5.880;2022-12-29T04:20:23;5.57;;;1.15;;
55710;SDS011;41612;51.994;5.880;2022-12-29T04:25:36;3.92;;;1.45;;
55710;SDS011;41612;51.994;5.880;2022-12-29T04:28:02;2.95;;;1.00;;
55710;SDS011;41612;51.994;5.880;2022-12-29T04:30:43;3.78;;;1.05;;
55710;SDS011;41612;51.994;5.880;2022-12-29T04:33:15;4.05;;;1.20;;
55710;SDS011;41612;51.994;5.880;2022-12-29T04:35:42;5.03;;;1.05;;
55710;SDS011;41612;51.994;5.880;2022-12-29T04:38:09;2.67;;;0.90;;
55710;SDS011;41612;51.994;5.880;2022-12-29T04:40:37;2.67;;;1.42;;
55710;SDS011;41612;51.994;5.880;2022-12-29T04:43:04;2.75;;;0.90;;
55710;SDS011;41612;51.994;5.880;2022-12-29T04:45:35;3.00;;;1.00;;
55710;SDS011;41612;51.994;5.880;2022-12-29T04:48:22;7.35;;;1.45;;
55710;SDS011;41612;51.994;5.880;2022-12-29T04:51:23;4.30;;;0.98;;
55710;SDS011;41612;51.994;5.880;2022-12-29T04:53:49;4.85;;;1.10;;
55710;SDS011;41612;51.994;5.880;2022-12-29T04:56:15;4.03;;;1.90;;
55710;SDS011;41612;51.994;5.880;2022-12-29T04:58:41;4.30;;;1.02;;
55710;SDS011;41612;51.994;5.880;2022-12-29T05:01:07;9.90;;;2.28;;
55710;SDS011;41612;51.994;5.880;2022-12-29T05:03:33;6.68;;;1.30;;
55710;SDS011;41612;51.994;5.880;2022-12-29T05:05:58;5.88;;;1.60;;
55710;SDS011;41612;51.994;5.880;2022-12-29T05:08:24;6.20;;;1.15;;
55710;SDS011;41612;51.994;5.880;2022-12-29T05:10:51;6.78;;;1.50;;
55710;SDS011;41612;51.994;5.880;2022-12-29T05:13:17;7.30;;;1.70;;
55710;SDS011;41612;51.994;5.880;2022-12-29T05:15:53;6.00;;;1.20;;
55710;SDS011;41612;51.994;5.880;2022-12-29T05:18:21;4.82;;;1.40;;
55710;SDS011;41612;51.994;5.880;2022-12-29T05:20:47;3.20;;;1.10;;
55710;SDS011;41612;51.994;5.880;2022-12-29T05:23:13;10.48;;;1.20;;
55710;SDS011;41612;51.994;5.880;2022-12-29T05:25:40;4.03;;;1.42;;
55710;SDS011;41612;51.994;5.880;2022-12-29T05:28:15;8.98;;;1.52;;
55710;SDS011;41612;51.994;5.880;2022-12-29T05:30:50;5.70;;;1.20;;
55710;SDS011;41612;51.994;5.880;2022-12-29T05:33:17;3.40;;;1.20;;
55710;SDS011;41612;51.994;5.880;2022-12-29T05:35:44;5.55;;;1.70;;
55710;SDS011;41612;51.994;5.880;2022-12-29T05:38:11;8.73;;;1.50;;
55710;SDS011;41612;51.994;5.880;2022-12-29T05:40:37;3.08;;;1.20;;
55710;SDS011;41612;51.994;5.880;2022-12-29T05:43:11;3.67;;;1.13;;
55710;SDS011;41612;51.994;5.880;2022-12-29T05:46:00;3.40;;;1.40;;
55710;SDS011;41612;51.994;5.880;2022-12-29T05:48:50;6.57;;;1.50;;
55710;SDS011;41612;51.994;5.880;2022-12-29T05:51:23;2.97;;;1.02;;
55710;SDS011;41612;51.994;5.880;2022-12-29T05:53:51;6.03;;;1.70;;
55710;SDS011;41612;51.994;5.880;2022-12-29T05:56:16;5.57;;;1.40;;
55710;SDS011;41612;51.994;5.880;2022-12-29T05:58:44;7.40;;;1.40;;
55710;SDS011;41612;51.994;5.880;2022-12-29T06:01:10;2.10;;;1.20;;
55710;SDS011;41612;51.994;5.880;2022-12-29T06:03:36;6.55;;;1.15;;
55710;SDS011;41612;51.994;5.880;2022-12-29T06:06:02;3.70;;;1.15;;
55710;SDS011;41612;51.994;5.880;2022-12-29T06:08:28;4.63;;;1.52;;
55710;SDS011;41612;51.994;5.880;2022-12-29T06:10:53;7.70;;;1.40;;
55710;SDS011;41612;51.994;5.880;2022-12-29T06:13:19;5.28;;;1.20;;
55710;SDS011;41612;51.994;5.880;2022-12-29T06:15:48;5.20;;;1.73;;
55710;SDS011;41612;51.994;5.880;2022-12-29T06:18:15;4.47;;;1.45;;
55710;SDS011;41612;51.994;5.880;2022-12-29T06:20:41;7.82;;;1.50;;
55710;SDS011;41612;51.994;5.880;2022-12-29T06:23:07;5.85;;;1.45;;
55710;SDS011;41612;51.994;5.880;2022-12-29T06:25:33;5.13;;;1.40;;
55710;SDS011;41612;51.994;5.880;2022-12-29T06:28:01;9.55;;;1.80;;
55710;SDS011;41612;51.994;5.880;2022-12-29T06:30:27;9.85;;;1.60;;
55710;SDS011;41612;51.994;5.880;2022-12-29T06:32:53;7.30;;;1.77;;
55710;SDS011;41612;51.994;5.880;2022-12-29T06:35:20;8.88;;;1.48;;
55710;SDS011;41612;51.994;5.880;2022-12-29T06:37:49;8.20;;;1.30;;
55710;SDS011;41612;51.994;5.880;2022-12-29T06:40:15;8.15;;;1.60;;
55710;SDS011;41612;51.994;5.880;2022-12-29T06:42:59;6.70;;;1.60;;
55710;SDS011;41612;51.994;5.880;2022-12-29T06:45:37;4.85;;;1.33;;
55710;SDS011;41612;51.994;5.880;2022-12-29T06:48:04;9.75;;;1.30;;
55710;SDS011;41612;51.994;5.880;2022-12-29T06:50:30;7.93;;;1.55;;
55710;SDS011;41612;51.994;5.880;2022-12-29T06:52:56;12.98;;;1.60;;
55710;SDS011;41612;51.994;5.880;2022-12-29T06:55:21;6.93;;;1.30;;
55710;SDS011;41612;51.994;5.880;2022-12-29T06:57:47;7.63;;;1.75;;
55710;SDS011;41612;51.994;5.880;2022-12-29T07:00:13;4.10;;;1.10;;
55710;SDS011;41612;51.994;5.880;2022-12-29T07:02:39;7.82;;;1.48;;
55710;SDS011;41612;51.994;5.880;2022-12-29T07:05:07;6.22;;;1.70;;
55710;SDS011;41612;51.994;5.880;2022-12-29T07:07:34;6.93;;;1.20;;
55710;SDS011;41612;51.994;5.880;2022-12-29T07:10:02;4.22;;;1.02;;
55710;SDS011;41612;51.994;5.880;2022-12-29T07:12:28;6.55;;;1.20;;
55710;SDS011;41612;51.994;5.880;2022-12-29T07:14:54;6.32;;;1.90;;
55710;SDS011;41612;51.994;5.880;2022-12-29T07:17:20;7.93;;;1.85;;
55710;SDS011;41612;51.994;5.880;2022-12-29T07:19:45;9.68;;;1.92;;
55710;SDS011;41612;51.994;5.880;2022-12-29T07:22:11;4.75;;;1.45;;
55710;SDS011;41612;51.994;5.880;2022-12-29T07:24:37;6.72;;;1.13;;
55710;SDS011;41612;51.994;5.880;2022-12-29T07:27:03;6.10;;;1.42;;
55710;SDS011;41612;51.994;5.880;2022-12-29T07:29:29;10.85;;;1.77;;
55710;SDS011;41612;51.994;5.880;2022-12-29T07:31:54;5.45;;;1.25;;
55710;SDS011;41612;51.994;5.880;2022-12-29T07:34:20;9.18;;;2.63;;
55710;SDS011;41612;51.994;5.880;2022-12-29T07:36:46;8.38;;;1.83;;
55710;SDS011;41612;51.994;5.880;2022-12-29T07:39:11;10.00;;;1.40;;
55710;SDS011;41612;51.994;5.880;2022-12-29T07:41:37;9.63;;;1.30;;
55710;SDS011;41612;51.994;5.880;2022-12-29T07:44:03;9.10;;;1.83;;
55710;SDS011;41612;51.994;5.880;2022-12-29T07:47:04;5.47;;;1.75;;
55710;SDS011;41612;51.994;5.880;2022-12-29T07:49:30;11.85;;;1.48;;
55710;SDS011;41612;51.994;5.880;2022-12-29T07:51:56;13.98;;;1.17;;
55710;SDS011;41612;51.994;5.880;2022-12-29T07:54:21;6.30;;;1.20;;
55710;SDS011;41612;51.994;5.880;2022-12-29T07:56:47;4.68;;;1.60;;
55710;SDS011;41612;51.994;5.880;2022-12-29T07:59:13;6.97;;;1.95;;
55710;SDS011;41612;51.994;5.880;2022-12-29T08:01:39;11.38;;;1.52;;
55710;SDS011;41612;51.994;5.880;2022-12-29T08:04:05;13.57;;;2.10;;
55710;SDS011;41612;51.994;5.880;2022-12-29T08:06:30;9.10;;;2.38;;
55710;SDS011;41612;51.994;5.880;2022-12-29T08:08:56;8.13;;;1.98;;
55710;SDS011;41612;51.994;5.880;2022-12-29T08:11:22;7.05;;;1.75;;
55710;SDS011;41612;51.994;5.880;2022-12-29T08:13:48;8.55;;;1.40;;
55710;SDS011;41612;51.994;5.880;2022-12-29T08:16:14;6.50;;;1.17;;
55710;SDS011;41612;51.994;5.880;2022-12-29T08:18:43;5.22;;;1.38;;
55710;SDS011;41612;51.994;5.880;2022-12-29T08:21:09;9.30;;;2.28;;
55710;SDS011;41612;51.994;5.880;2022-12-29T08:23:35;4.78;;;1.58;;
55710;SDS011;41612;51.994;5.880;2022-12-29T08:26:01;9.43;;;1.60;;
55710;SDS011;41612;51.994;5.880;2022-12-29T08:28:29;3.35;;;1.17;;
55710;SDS011;41612;51.994;5.880;2022-12-29T08:30:59;9.95;;;2.08;;
55710;SDS011;41612;51.994;5.880;2022-12-29T08:33:26;8.77;;;2.20;;
55710;SDS011;41612;51.994;5.880;2022-12-29T08:35:54;11.70;;;2.17;;
55710;SDS011;41612;51.994;5.880;2022-12-29T08:38:31;9.05;;;1.52;;
55710;SDS011;41612;51.994;5.880;2022-12-29T08:40:57;7.78;;;1.70;;
55710;SDS011;41612;51.994;5.880;2022-12-29T08:43:26;10.05;;;1.95;;
55710;SDS011;41612;51.994;5.880;2022-12-29T08:45:52;6.38;;;1.60;;
55710;SDS011;41612;51.994;5.880;2022-12-29T08:48:18;8.13;;;1.60;;
55710;SDS011;41612;51.994;5.880;2022-12-29T08:50:47;6.43;;;1.75;;
55710;SDS011;41612;51.994;5.880;2022-12-29T08:53:14;7.60;;;2.85;;
55710;SDS011;41612;51.994;5.880;2022-12-29T08:55:47;6.25;;;1.30;;
55710;SDS011;41612;51.994;5.880;2022-12-29T08:58:21;6.72;;;1.52;;
55710;SDS011;41612;51.994;5.880;2022-12-29T09:00:47;10.38;;;1.77;;
55710;SDS011;41612;51.994;5.880;2022-12-29T09:03:13;9.10;;;1.73;;
55710;SDS011;41612;51.994;5.880;2022-12-29T09:05:42;11.93;;;2.00;;
55710;SDS011;41612;51.994;5.880;2022-12-29T09:08:08;11.23;;;2.13;;
55710;SDS011;41612;51.994;5.880;2022-12-29T09:10:34;6.80;;;1.60;;
55710;SDS011;41612;51.994;5.880;2022-12-29T09:12:59;9.55;;;2.10;;
55710;SDS011;41612;51.994;5.880;2022-12-29T09:15:25;9.50;;;2.33;;
55710;SDS011;41612;51.994;5.880;2022-12-29T09:17:51;7.95;;;1.83;;
55710;SDS011;41612;51.994;5.880;2022-12-29T09:20:19;6.63;;;1.40;;
55710;SDS011;41612;51.994;5.880;2022-12-29T09:22:46;6.22;;;1.45;;
55710;SDS011;41612;51.994;5.880;2022-12-29T09:25:12;9.50;;;1.95;;
55710;SDS011;41612;51.994;5.880;2022-12-29T09:27:38;11.45;;;2.50;;
55710;SDS011;41612;51.994;5.880;2022-12-29T09:30:05;15.98;;;3.03;;
55710;SDS011;41612;51.994;5.880;2022-12-29T09:32:41;9.07;;;1.77;;
55710;SDS011;41612;51.994;5.880;2022-12-29T09:35:13;17.73;;;2.90;;
55710;SDS011;41612;51.994;5.880;2022-12-29T09:37:40;10.48;;;2.17;;
55710;SDS011;41612;51.994;5.880;2022-12-29T09:40:06;13.30;;;2.22;;
55710;SDS011;41612;51.994;5.880;2022-12-29T09:42:45;15.77;;;3.03;;
55710;SDS011;41612;51.994;5.880;2022-12-29T09:45:37;9.88;;;1.83;;
55710;SDS011;41612;51.994;5.880;2022-12-29T09:48:11;9.02;;;2.03;;
55710;SDS011;41612;51.994;5.880;2022-12-29T09:50:43;13.00;;;2.35;;
55710;SDS011;41612;51.994;5.880;2022-12-29T09:56:00;8.75;;;1.55;;
55710;SDS011;41612;51.994;5.880;2022-12-29T09:58:32;9.23;;;1.88;;
55710;SDS011;41612;51.994;5.880;2022-12-29T10:01:07;12.23;;;2.90;;
55710;SDS011;41612;51.994;5.880;2022-12-29T10:03:48;8.10;;;1.40;;
55710;SDS011;41612;51.994;5.880;2022-12-29T10:09:12;11.90;;;2.55;;
55710;SDS011;41612;51.994;5.880;2022-12-29T10:11:58;13.25;;;3.58;;
55710;SDS011;41612;51.994;5.880;2022-12-29T10:25:16;4.97;;;1.50;;
55710;SDS011;41612;51.994;5.880;2022-12-29T10:27:46;9.77;;;2.45;;
55710;SDS011;41612;51.994;5.880;2022-12-29T10:30:13;7.82;;;1.67;;
55710;SDS011;41612;51.994;5.880;2022-12-29T10:32:43;12.95;;;2.38;;
55710;SDS011;41612;51.994;5.880;2022-12-29T10:35:25;10.77;;;2.10;;
55710;SDS011;41612;51.994;5.880;2022-12-29T10:40:57;11.05;;;2.65;;
55710;SDS011;41612;51.994;5.880;2022-12-29T10:43:26;13.93;;;2.60;;
55710;SDS011;41612;51.994;5.880;2022-12-29T10:46:07;7.18;;;2.25;;
55710;SDS011;41612;51.994;5.880;2022-12-29T10:48:36;15.25;;;3.88;;
55710;SDS011;41612;51.994;5.880;2022-12-29T10:51:04;8.25;;;2.28;;
55710;SDS011;41612;51.994;5.880;2022-12-29T10:54:18;6.78;;;2.72;;
55710;SDS011;41612;51.994;5.880;2022-12-29T10:56:37;8.10;;;2.10;;
55710;SDS011;41612;51.994;5.880;2022-12-29T10:59:24;10.90;;;3.08;;
55710;SDS011;41612;51.994;5.880;2022-12-29T11:01:58;8.27;;;2.20;;
55710;SDS011;41612;51.994;5.880;2022-12-29T11:07:22;9.93;;;2.58;;
55710;SDS011;41612;51.994;5.880;2022-12-29T11:09:48;9.00;;;2.58;;
55710;SDS011;41612;51.994;5.880;2022-12-29T11:14:44;8.40;;;2.33;;
55710;SDS011;41612;51.994;5.880;2022-12-29T11:17:12;12.38;;;3.92;;
55710;SDS011;41612;51.994;5.880;2022-12-29T11:19:42;11.77;;;2.72;;
55710;SDS011;41612;51.994;5.880;2022-12-29T11:22:29;9.32;;;3.38;;
55710;SDS011;41612;51.994;5.880;2022-12-29T11:24:54;9.35;;;2.95;;
55710;SDS011;41612;51.994;5.880;2022-12-29T11:29:55;12.82;;;2.83;;
55710;SDS011;41612;51.994;5.880;2022-12-29T11:32:25;12.00;;;3.25;;
55710;SDS011;41612;51.994;5.880;2022-12-29T11:34:52;15.63;;;3.70;;
55710;SDS011;41612;51.994;5.880;2022-12-29T11:37:25;13.88;;;5.22;;
55710;SDS011;41612;51.994;5.880;2022-12-29T11:39:55;15.77;;;3.75;;
55710;SDS011;41612;51.994;5.880;2022-12-29T11:42:37;10.13;;;3.65;;
55710;SDS011;41612;51.994;5.880;2022-12-29T11:45:16;11.88;;;4.18;;
55710;SDS011;41612;51.994;5.880;2022-12-29T11:48:08;14.23;;;4.20;;
55710;SDS011;41612;51.994;5.880;2022-12-29T11:50:42;17.60;;;3.92;;
55710;SDS011;41612;51.994;5.880;2022-12-29T11:53:17;11.60;;;3.78;;
55710;SDS011;41612;51.994;5.880;2022-12-29T11:56:14;18.35;;;4.53;;
55710;SDS011;41612;51.994;5.880;2022-12-29T11:58:42;14.43;;;3.85;;
55710;SDS011;41612;51.994;5.880;2022-12-29T12:04:03;24.55;;;4.70;;
55710;SDS011;41612;51.994;5.880;2022-12-29T12:06:29;19.27;;;4.95;;
55710;SDS011;41612;51.994;5.880;2022-12-29T12:09:02;8.75;;;3.00;;
55710;SDS011;41612;51.994;5.880;2022-12-29T12:11:32;13.50;;;3.40;;
55710;SDS011;41612;51.994;5.880;2022-12-29T12:19:41;11.60;;;4.78;;
55710;SDS011;41612;51.994;5.880;2022-12-29T12:22:36;14.32;;;4.05;;
55710;SDS011;41612;51.994;5.880;2022-12-29T12:28:00;13.45;;;3.65;;
55710;SDS011;41612;51.994;5.880;2022-12-29T12:30:47;9.80;;;2.88;;
55710;SDS011;41612;51.994;5.880;2022-12-29T12:36:20;11.52;;;4.50;;
55710;SDS011;41612;51.994;5.880;2022-12-29T12:41:46;14.02;;;4.07;;
55710;SDS011;41612;51.994;5.880;2022-12-29T12:44:56;11.82;;;3.13;;
55710;SDS011;41612;51.994;5.880;2022-12-29T13:07:13;12.43;;;4.35;;
55710;SDS011;41612;51.994;5.880;2022-12-29T13:19:02;15.65;;;4.65;;
55710;SDS011;41612;51.994;5.880;2022-12-29T13:29:54;11.98;;;3.85;;
55710;SDS011;41612;51.994;5.880;2022-12-29T13:32:30;8.18;;;2.80;;
55710;SDS011;41612;51.994;5.880;2022-12-29T13:40:13;14.23;;;3.75;;
55710;SDS011;41612;51.994;5.880;2022-12-29T13:42:42;11.40;;;3.08;;
55710;SDS011;41612;51.994;5.880;2022-12-29T13:45:10;16.25;;;3.45;;
55710;SDS011;41612;51.994;5.880;2022-12-29T13:47:45;9.20;;;3.70;;
55710;SDS011;41612;51.994;5.880;2022-12-29T13:50:33;12.93;;;4.05;;
55710;SDS011;41612;51.994;5.880;2022-12-29T13:53:14;11.55;;;2.50;;
55710;SDS011;41612;51.994;5.880;2022-12-29T14:01:12;16.65;;;3.60;;
55710;SDS011;41612;51.994;5.880;2022-12-29T14:08:52;12.30;;;3.47;;
55710;SDS011;41612;51.994;5.880;2022-12-29T14:11:20;11.32;;;3.33;;
55710;SDS011;41612;51.994;5.880;2022-12-29T14:13:50;15.02;;;3.95;;
55710;SDS011;41612;51.994;5.880;2022-12-29T14:16:30;15.45;;;3.35;;
55710;SDS011;41612;51.994;5.880;2022-12-29T14:19:03;12.30;;;2.85;;
55710;SDS011;41612;51.994;5.880;2022-12-29T14:21:36;5.32;;;2.22;;
55710;SDS011;41612;51.994;5.880;2022-12-29T14:27:00;2.95;;;1.38;;
55710;SDS011;41612;51.994;5.880;2022-12-29T14:29:47;6.28;;;1.60;;
55710;SDS011;41612;51.994;5.880;2022-12-29T14:34:52;5.45;;;1.67;;
55710;SDS011;41612;51.994;5.880;2022-12-29T14:37:25;5.28;;;1.80;;
55710;SDS011;41612;51.994;5.880;2022-12-29T14:40:03;3.20;;;1.30;;
55710;SDS011;41612;51.994;5.880;2022-12-29T14:42:32;4.53;;;1.80;;
55710;SDS011;41612;51.994;5.880;2022-12-29T14:49:55;6.00;;;2.88;;
55710;SDS011;41612;51.994;5.880;2022-12-29T14:52:23;5.82;;;2.00;;
55710;SDS011;41612;51.994;5.880;2022-12-29T14:57:52;11.38;;;2.90;;
55710;SDS011;41612;51.994;5.880;2022-12-29T15:00:34;8.10;;;2.58;;
55710;SDS011;41612;51.994;5.880;2022-12-29T15:05:31;8.88;;;2.17;;
55710;SDS011;41612;51.994;5.880;2022-12-29T15:08:12;12.15;;;2.33;;
55710;SDS011;41612;51.994;5.880;2022-12-29T15:10:55;8.40;;;2.42;;
55710;SDS011;41612;51.994;5.880;2022-12-29T15:13:33;9.00;;;3.45;;
55710;SDS011;41612;51.994;5.880;2022-12-29T15:16:12;7.15;;;2.30;;
55710;SDS011;41612;51.994;5.880;2022-12-29T15:18:50;7.40;;;2.20;;
55710;SDS011;41612;51.994;5.880;2022-12-29T15:21:16;10.93;;;2.60;;
55710;SDS011;41612;51.994;5.880;2022-12-29T15:23:44;9.02;;;2.58;;
55710;SDS011;41612;51.994;5.880;2022-12-29T15:26:10;14.68;;;2.88;;
55710;SDS011;41612;51.994;5.880;2022-12-29T15:28:38;11.00;;;2.80;;
55710;SDS011;41612;51.994;5.880;2022-12-29T15:31:11;9.45;;;2.83;;
55710;SDS011;41612;51.994;5.880;2022-12-29T15:33:39;8.85;;;2.97;;
55710;SDS011;41612;51.994;5.880;2022-12-29T15:36:12;10.65;;;2.47;;
55710;SDS011;41612;51.994;5.880;2022-12-29T15:38:46;10.95;;;2.67;;
55710;SDS011;41612;51.994;5.880;2022-12-29T15:41:20;8.98;;;2.45;;
55710;SDS011;41612;51.994;5.880;2022-12-29T15:44:20;9.18;;;2.17;;
55710;SDS011;41612;51.994;5.880;2022-12-29T15:46:48;10.18;;;2.72;;
55710;SDS011;41612;51.994;5.880;2022-12-29T15:49:14;10.82;;;2.42;;
55710;SDS011;41612;51.994;5.880;2022-12-29T15:51:41;15.48;;;3.28;;
55710;SDS011;41612;51.994;5.880;2022-12-29T15:54:21;9.80;;;2.47;;
55710;SDS011;41612;51.994;5.880;2022-12-29T15:56:49;7.95;;;2.45;;
55710;SDS011;41612;51.994;5.880;2022-12-29T15:59:28;16.30;;;4.60;;
55710;SDS011;41612;51.994;5.880;2022-12-29T16:01:57;9.48;;;2.17;;
55710;SDS011;41612;51.994;5.880;2022-12-29T16:04:27;11.20;;;2.60;;
55710;SDS011;41612;51.994;5.880;2022-12-29T16:09:42;8.38;;;2.22;;
55710;SDS011;41612;51.994;5.880;2022-12-29T16:12:15;7.65;;;2.63;;
55710;SDS011;41612;51.994;5.880;2022-12-29T16:14:48;12.40;;;2.58;;
55710;SDS011;41612;51.994;5.880;2022-12-29T16:17:20;6.68;;;2.38;;
55710;SDS011;41612;51.994;5.880;2022-12-29T16:19:50;7.78;;;1.95;;
55710;SDS011;41612;51.994;5.880;2022-12-29T16:24:54;8.65;;;2.20;;
55710;SDS011;41612;51.994;5.880;2022-12-29T16:27:25;12.90;;;2.72;;
55710;SDS011;41612;51.994;5.880;2022-12-29T16:29:57;9.68;;;2.83;;
55710;SDS011;41612;51.994;5.880;2022-12-29T16:32:29;11.70;;;2.47;;
55710;SDS011;41612;51.994;5.880;2022-12-29T16:37:41;12.93;;;3.22;;
55710;SDS011;41612;51.994;5.880;2022-12-29T16:42:56;8.40;;;2.72;;
55710;SDS011;41612;51.994;5.880;2022-12-29T16:50:52;6.10;;;2.15;;
55710;SDS011;41612;51.994;5.880;2022-12-29T16:53:37;13.02;;;2.63;;
55710;SDS011;41612;51.994;5.880;2022-12-29T16:56:15;9.88;;;2.30;;
55710;SDS011;41612;51.994;5.880;2022-12-29T16:58:46;12.45;;;4.60;;
55710;SDS011;41612;51.994;5.880;2022-12-29T17:01:19;8.38;;;2.08;;
55710;SDS011;41612;51.994;5.880;2022-12-29T17:03:47;5.82;;;2.08;;
55710;SDS011;41612;51.994;5.880;2022-12-29T17:06:23;14.13;;;2.35;;
55710;SDS011;41612;51.994;5.880;2022-12-29T17:08:51;7.63;;;1.98;;
55710;SDS011;41612;51.994;5.880;2022-12-29T17:11:26;7.90;;;2.42;;
55710;SDS011;41612;51.994;5.880;2022-12-29T17:14:16;8.43;;;1.80;;
55710;SDS011;41612;51.994;5.880;2022-12-29T17:16:44;7.47;;;1.98;;
55710;SDS011;41612;51.994;5.880;2022-12-29T17:19:12;13.85;;;4.35;;
55710;SDS011;41612;51.994;5.880;2022-12-29T17:21:42;7.13;;;2.00;;
55710;SDS011;41612;51.994;5.880;2022-12-29T17:24:15;10.20;;;2.67;;
55710;SDS011;41612;51.994;5.880;2022-12-29T17:26:44;5.43;;;1.50;;
55710;SDS011;41612;51.994;5.880;2022-12-29T17:29:15;8.38;;;1.88;;
55710;SDS011;41612;51.994;5.880;2022-12-29T17:31:47;10.80;;;2.50;;
55710;SDS011;41612;51.994;5.880;2022-12-29T17:34:13;6.25;;;1.95;;
55710;SDS011;41612;51.994;5.880;2022-12-29T17:36:39;6.82;;;1.73;;
55710;SDS011;41612;51.994;5.880;2022-12-29T17:39:05;10.48;;;2.22;;
55710;SDS011;41612;51.994;5.880;2022-12-29T17:41:31;8.80;;;2.15;;
55710;SDS011;41612;51.994;5.880;2022-12-29T17:44:00;8.68;;;2.60;;
55710;SDS011;41612;51.994;5.880;2022-12-29T17:46:26;11.15;;;2.28;;
55710;SDS011;41612;51.994;5.880;2022-12-29T17:48:51;5.13;;;1.42;;
55710;SDS011;41612;51.994;5.880;2022-12-29T17:51:18;10.38;;;2.13;;
55710;SDS011;41612;51.994;5.880;2022-12-29T17:53:46;9.07;;;2.08;;
55710;SDS011;41612;51.994;5.880;2022-12-29T17:56:11;9.20;;;2.83;;
55710;SDS011;41612;51.994;5.880;2022-12-29T17:58:37;10.90;;;2.55;;
55710;SDS011;41612;51.994;5.880;2022-12-29T18:01:03;7.13;;;1.90;;